首页
METAR-TAF:

METAR-TAF

机场 :

努瓦克肖特, 毛里塔尼亚

努瓦克肖特国际机场

纬度: 18-18-36N, 经度: 015-58-11W, 海拔: 3米

当前天气观测

该预报发布于43分钟前的01:00 UTC
风速8节,风向北转东北
温度 17°C
湿度 29%
气压 1017 hPa
能見度: 7000

METAR: GQNO 190100Z 03008KT 7000 NSC 17/M01 Q1017 NOSIG

时间: 01:43 (01:43 UTC)

预报

该预报发布于2小时和43分钟前的23:00 UTC
预报有效从19日的 00点(UTC)到 20日的 06点(UTC)
风速8节,风向北转东北
能見度: 7000
成为
从 19日的 06点(UTC)到 19日的 08点(UTC)
风速12节,风向东北

TAF: GQNO 182300Z 1900/2006 02008KT 7000 NSC BECMG 1906/1908 05012KT

超过4000个机场的气象观测和天气预报(METAR&TAF报告)。

可查询的气象台以黄色和红色小点在地图上表示。

将鼠标移到小点上方,可查看气象台名称。

然后点击查看天气观测和预报。

如需切换地图:点击带黑十字的绿色按钮放大地图;点击带横线的绿色按钮缩小地图;或者点击绿色箭头查看邻近地区的地图。


METAR-TAF: